Time;durP1;ratioP1;P1;durP2;ratioP2;P2;SDS_P1;SDS_P2;PMS_P1;PMS_P2;Temp;Humidity;BMP_temperature;BMP_pressure;BME280_temperature;BME280_humidity;BME280_pressure;Samples;Min_cycle;Max_cycle;Signal;HPM_P1;HPM_P2
2022/07/02 00:00:56;;;;;;;1.60;1.50;;;;;;;;;;4989552;28;20241;-61
2022/07/02 00:03:25;;;;;;;1.98;1.33;;;;;;;;;;4989572;28;20276;-62
2022/07/02 00:05:56;;;;;;;1.30;1.30;;;;;;;;;;4988927;28;20210;-61
2022/07/02 00:08:24;;;;;;;1.48;1.48;;;;;;;;;;4989644;28;20435;-61
2022/07/02 00:10:52;;;;;;;5.60;1.80;;;;;;;;;;4988835;28;20293;-61
2022/07/02 00:13:20;;;;;;;1.60;1.60;;;;;;;;;;4989133;28;20341;-62
2022/07/02 00:15:47;;;;;;;1.83;1.70;;;;;;;;;;4988879;28;20264;-61
2022/07/02 00:18:15;;;;;;;2.13;1.80;;;;;;;;;;4989686;28;20205;-62
2022/07/02 00:20:44;;;;;;;1.88;1.80;;;;;;;;;;4988794;28;20695;-61
2022/07/02 00:23:11;;;;;;;1.90;1.80;;;;;;;;;;4989073;28;20217;-62
2022/07/02 00:25:39;;;;;;;1.88;1.75;;;;;;;;;;4988470;28;20205;-61
2022/07/02 00:28:07;;;;;;;1.50;1.40;;;;;;;;;;4989029;28;20218;-61
2022/07/02 00:30:35;;;;;;;1.60;1.50;;;;;;;;;;4980846;28;20214;-62
2022/07/02 00:33:02;;;;;;;1.85;1.80;;;;;;;;;;4988729;28;20202;-61
2022/07/02 00:35:30;;;;;;;1.98;1.48;;;;;;;;;;4988591;28;20202;-61
2022/07/02 00:37:58;;;;;;;1.73;1.67;;;;;;;;;;4988741;28;20668;-61
2022/07/02 00:40:26;;;;;;;2.45;1.40;;;;;;;;;;4988701;28;20634;-61
2022/07/02 00:42:53;;;;;;;1.25;1.25;;;;;;;;;;4988520;28;20209;-61
2022/07/02 00:45:20;;;;;;;1.30;1.25;;;;;;;;;;4988521;28;20218;-61
2022/07/02 00:47:49;;;;;;;1.27;1.27;;;;;;;;;;4988748;28;20273;-61
2022/07/02 00:50:16;;;;;;;1.50;1.40;;;;;;;;;;4988892;28;20202;-61
2022/07/02 00:52:43;;;;;;;1.45;1.45;;;;;;;;;;4988783;28;20589;-61
2022/07/02 00:55:10;;;;;;;1.40;1.30;;;;;;;;;;4988286;28;20296;-61
2022/07/02 00:57:37;;;;;;;3.70;2.70;;;;;;;;;;4988944;28;20209;-61
2022/07/02 01:00:05;;;;;;;1.55;1.35;;;;;;;;;;4988683;28;20256;-61
2022/07/02 01:02:32;;;;;;;5.18;1.45;;;;;;;;;;4988813;28;20202;-61
2022/07/02 01:05:01;;;;;;;1.63;1.48;;;;;;;;;;4988474;28;20735;-61
2022/07/02 01:07:28;;;;;;;1.47;1.43;;;;;;;;;;4988802;28;20202;-61
2022/07/02 01:12:42;;;;;;;1.63;1.52;;;;;;;;;;4988511;28;20356;-61
2022/07/02 01:15:09;;;;;;;1.45;1.40;;;;;;;;;;4987668;28;20647;-61
2022/07/02 01:17:36;;;;;;;1.42;1.33;;;;;;;;;;4988108;28;20292;-61
2022/07/02 01:20:05;;;;;;;1.00;1.00;;;;;;;;;;4988302;28;20221;-61
2022/07/02 01:22:37;;;;;;;1.30;1.30;;;;;;;;;;4987986;28;20260;-61
2022/07/02 01:25:05;;;;;;;2.22;1.52;;;;;;;;;;4987952;28;20205;-62
2022/07/02 01:27:32;;;;;;;1.58;1.48;;;;;;;;;;4988615;28;20268;-61
2022/07/02 01:29:59;;;;;;;1.35;1.35;;;;;;;;;;4988181;28;20627;-61
2022/07/02 01:32:26;;;;;;;1.47;1.37;;;;;;;;;;4988343;28;20213;-61
2022/07/02 01:34:54;;;;;;;3.25;1.98;;;;;;;;;;4988393;28;20202;-61
2022/07/02 01:37:22;;;;;;;1.27;1.17;;;;;;;;;;4988164;28;20220;-62
2022/07/02 01:39:51;;;;;;;1.13;1.03;;;;;;;;;;4988287;28;20272;-61
2022/07/02 01:42:18;;;;;;;1.33;1.33;;;;;;;;;;4988389;28;20233;-62
2022/07/02 01:44:46;;;;;;;1.30;1.30;;;;;;;;;;4987703;28;20767;-61
2022/07/02 01:47:13;;;;;;;1.90;1.30;;;;;;;;;;4987829;28;20217;-62
2022/07/02 01:49:41;;;;;;;1.43;1.40;;;;;;;;;;4988055;28;20260;-61
2022/07/02 01:52:08;;;;;;;2.25;1.27;;;;;;;;;;4988030;28;20198;-61
2022/07/02 01:54:36;;;;;;;1.30;1.30;;;;;;;;;;4985094;28;20244;-61
2022/07/02 01:57:05;;;;;;;1.13;1.13;;;;;;;;;;4975943;28;20249;-61
2022/07/02 01:59:32;;;;;;;1.75;1.30;;;;;;;;;;4972385;28;20206;-61
2022/07/02 02:01:59;;;;;;;1.20;1.20;;;;;;;;;;4987659;28;20236;-61
2022/07/02 02:04:26;;;;;;;1.30;1.30;;;;;;;;;;4987370;28;20260;-62
2022/07/02 02:06:53;;;;;;;1.20;1.17;;;;;;;;;;4987937;28;20206;-61
2022/07/02 02:09:20;;;;;;;1.00;1.00;;;;;;;;;;4987354;28;20209;-61
2022/07/02 02:11:47;;;;;;;1.27;1.10;;;;;;;;;;4988478;28;20325;-61
2022/07/02 02:14:16;;;;;;;2.00;1.20;;;;;;;;;;4987397;28;20574;-61
2022/07/02 02:16:43;;;;;;;1.77;1.40;;;;;;;;;;4988111;28;20209;-61
2022/07/02 02:19:10;;;;;;;0.93;0.93;;;;;;;;;;4987168;28;20837;-61
2022/07/02 02:21:37;;;;;;;0.93;0.93;;;;;;;;;;4987335;28;20230;-61
2022/07/02 02:24:04;;;;;;;1.13;1.13;;;;;;;;;;4987614;28;20276;-62
2022/07/02 02:26:31;;;;;;;1.47;1.30;;;;;;;;;;4987263;28;20213;-62
2022/07/02 02:28:58;;;;;;;1.30;1.23;;;;;;;;;;4986764;28;20216;-61
2022/07/02 02:31:27;;;;;;;1.23;1.23;;;;;;;;;;4985935;28;20206;-61
2022/07/02 02:33:54;;;;;;;1.50;1.40;;;;;;;;;;4984388;28;20457;-61
2022/07/02 02:36:21;;;;;;;1.87;1.30;;;;;;;;;;4987888;28;20561;-61
2022/07/02 02:38:48;;;;;;;2.40;1.00;;;;;;;;;;4985869;28;20263;-61
2022/07/02 02:41:16;;;;;;;1.10;1.10;;;;;;;;;;4988013;28;20835;-61
2022/07/02 02:43:43;;;;;;;1.07;1.00;;;;;;;;;;4987493;28;20206;-61
2022/07/02 02:46:10;;;;;;;1.00;1.00;;;;;;;;;;4988204;28;20197;-62
2022/07/02 02:48:39;;;;;;;1.80;1.40;;;;;;;;;;4987512;28;20216;-62
2022/07/02 02:51:07;;;;;;;1.40;1.30;;;;;;;;;;4987609;28;20668;-61
2022/07/02 02:53:34;;;;;;;1.00;1.00;;;;;;;;;;4987470;28;20206;-62
2022/07/02 02:56:01;;;;;;;1.33;1.33;;;;;;;;;;4988018;28;20666;-61
2022/07/02 02:58:28;;;;;;;1.17;1.10;;;;;;;;;;4987584;28;20264;-61
2022/07/02 03:00:56;;;;;;;1.27;1.10;;;;;;;;;;4987696;28;20233;-61
2022/07/02 03:03:23;;;;;;;1.20;1.20;;;;;;;;;;4987150;28;20206;-61
2022/07/02 03:05:52;;;;;;;1.20;1.10;;;;;;;;;;4986331;28;20206;-62
2022/07/02 03:08:19;;;;;;;1.10;1.10;;;;;;;;;;4986361;28;20210;-61
2022/07/02 03:10:47;;;;;;;1.80;1.10;;;;;;;;;;4986317;28;20622;-61
2022/07/02 03:13:14;;;;;;;1.50;1.40;;;;;;;;;;4988439;28;20616;-61
2022/07/02 03:15:41;;;;;;;0.93;0.93;;;;;;;;;;4988413;28;20628;-61
2022/07/02 03:18:08;;;;;;;1.43;1.33;;;;;;;;;;4988797;28;20206;-61
2022/07/02 03:20:35;;;;;;;4.83;1.10;;;;;;;;;;4988549;28;20227;-61
2022/07/02 03:23:04;;;;;;;1.33;0.97;;;;;;;;;;4988698;28;20217;-61
2022/07/02 03:25:31;;;;;;;1.20;1.20;;;;;;;;;;4988867;28;20627;-62
2022/07/02 03:27:58;;;;;;;1.10;1.10;;;;;;;;;;4987758;28;20210;-61
2022/07/02 03:30:25;;;;;;;1.10;1.10;;;;;;;;;;4988051;28;20206;-62
2022/07/02 03:32:53;;;;;;;1.10;1.10;;;;;;;;;;4988249;28;20202;-62
2022/07/02 03:35:20;;;;;;;1.10;1.10;;;;;;;;;;4988146;28;20580;-62
2022/07/02 03:37:47;;;;;;;1.27;1.27;;;;;;;;;;4988579;28;20218;-62
2022/07/02 03:40:15;;;;;;;0.90;0.90;;;;;;;;;;4990308;28;20607;-61
2022/07/02 03:42:42;;;;;;;0.90;0.90;;;;;;;;;;4991907;28;20225;-62
2022/07/02 03:45:10;;;;;;;1.10;1.10;;;;;;;;;;4991378;28;20694;-61
2022/07/02 03:47:37;;;;;;;1.33;1.10;;;;;;;;;;4991210;28;20209;-62
2022/07/02 03:50:04;;;;;;;0.83;0.83;;;;;;;;;;4991674;28;20206;-61
2022/07/02 03:52:31;;;;;;;1.03;1.00;;;;;;;;;;4991993;28;20214;-61
2022/07/02 03:54:58;;;;;;;1.07;1.07;;;;;;;;;;4990970;28;21001;-61
2022/07/02 03:57:27;;;;;;;1.10;1.10;;;;;;;;;;4990454;28;20237;-61
2022/07/02 03:59:54;;;;;;;1.00;1.00;;;;;;;;;;4988394;28;20214;-60
2022/07/02 04:02:22;;;;;;;1.20;1.20;;;;;;;;;;4991485;28;20241;-61
2022/07/02 04:04:49;;;;;;;1.00;1.00;;;;;;;;;;4990324;28;20210;-61
2022/07/02 04:07:17;;;;;;;1.02;1.00;;;;;;;;;;4991407;28;20598;-61
2022/07/02 04:09:44;;;;;;;1.33;1.30;;;;;;;;;;4990962;28;20645;-61
2022/07/02 04:12:12;;;;;;;1.10;1.00;;;;;;;;;;4990577;28;20206;-61
2022/07/02 04:14:40;;;;;;;1.83;1.00;;;;;;;;;;4990542;28;20221;-61
2022/07/02 04:17:07;;;;;;;1.05;1.05;;;;;;;;;;4990942;28;20620;-61
2022/07/02 04:19:34;;;;;;;3.00;1.13;;;;;;;;;;4991026;28;20625;-61
2022/07/02 04:22:02;;;;;;;1.47;1.20;;;;;;;;;;4991375;28;20233;-61
2022/07/02 04:24:29;;;;;;;1.00;1.00;;;;;;;;;;4990978;28;20214;-62
2022/07/02 04:26:56;;;;;;;1.03;1.03;;;;;;;;;;4990363;28;20264;-61
2022/07/02 04:29:23;;;;;;;0.98;0.98;;;;;;;;;;4986503;28;20871;-61
2022/07/02 04:31:51;;;;;;;1.00;1.00;;;;;;;;;;4991250;28;20221;-61
2022/07/02 04:34:18;;;;;;;1.90;1.10;;;;;;;;;;4990986;28;20244;-62
2022/07/02 04:36:45;;;;;;;1.10;1.10;;;;;;;;;;4990630;28;20691;-61
2022/07/02 04:39:12;;;;;;;2.83;0.90;;;;;;;;;;4985974;28;20210;-62
2022/07/02 04:41:39;;;;;;;1.02;1.02;;;;;;;;;;4990514;28;20730;-61
2022/07/02 04:44:06;;;;;;;1.10;1.10;;;;;;;;;;4989945;28;20213;-61
2022/07/02 04:46:33;;;;;;;1.42;1.33;;;;;;;;;;4990429;28;20693;-61
2022/07/02 04:49:02;;;;;;;1.00;1.00;;;;;;;;;;4990456;28;20237;-60
2022/07/02 04:51:29;;;;;;;1.23;1.13;;;;;;;;;;4989926;28;20209;-60
2022/07/02 04:53:56;;;;;;;1.27;1.27;;;;;;;;;;4990237;28;20206;-61
2022/07/02 04:56:24;;;;;;;1.02;1.02;;;;;;;;;;4990277;28;20651;-61
2022/07/02 04:58:51;;;;;;;1.10;1.00;;;;;;;;;;4990133;28;20342;-61
2022/07/02 05:01:18;;;;;;;1.15;1.10;;;;;;;;;;4989355;28;20229;-60
2022/07/02 05:03:45;;;;;;;1.48;1.48;;;;;;;;;;4990347;28;20213;-61
2022/07/02 05:06:14;;;;;;;2.15;0.90;;;;;;;;;;4989606;28;20220;-61
2022/07/02 05:08:41;;;;;;;0.95;0.95;;;;;;;;;;4988771;28;20202;-61
2022/07/02 05:11:08;;;;;;;2.20;1.30;;;;;;;;;;4989736;28;20268;-61
2022/07/02 05:13:35;;;;;;;1.10;1.10;;;;;;;;;;4989656;28;20621;-61
2022/07/02 05:16:02;;;;;;;1.00;1.00;;;;;;;;;;4986413;28;20602;-61
2022/07/02 05:18:29;;;;;;;1.02;1.02;;;;;;;;;;4987307;28;20672;-61
2022/07/02 05:20:56;;;;;;;1.20;1.20;;;;;;;;;;4989800;28;20276;-61
2022/07/02 05:23:24;;;;;;;1.55;1.52;;;;;;;;;;4988811;28;20248;-61
2022/07/02 05:25:51;;;;;;;1.17;1.17;;;;;;;;;;4989364;28;20218;-61
2022/07/02 05:28:18;;;;;;;2.10;1.40;;;;;;;;;;4989435;28;20206;-61
2022/07/02 05:30:45;;;;;;;1.70;1.65;;;;;;;;;;4987049;28;20268;-61
2022/07/02 05:33:13;;;;;;;2.88;1.73;;;;;;;;;;4987720;28;20256;-60
2022/07/02 05:35:40;;;;;;;1.90;1.77;;;;;;;;;;4987690;28;20217;-60
2022/07/02 05:38:07;;;;;;;1.88;1.77;;;;;;;;;;4987807;28;20210;-60
2022/07/02 05:40:35;;;;;;;1.70;1.70;;;;;;;;;;4989647;28;20198;-61
2022/07/02 05:43:02;;;;;;;2.45;2.30;;;;;;;;;;4988884;28;20673;-61
2022/07/02 05:45:29;;;;;;;2.08;1.98;;;;;;;;;;4986962;28;20206;-61
2022/07/02 05:47:56;;;;;;;2.00;2.00;;;;;;;;;;4989258;28;20206;-62
2022/07/02 05:50:24;;;;;;;2.17;2.13;;;;;;;;;;4989577;28;20686;-61
2022/07/02 05:52:51;;;;;;;2.30;2.20;;;;;;;;;;4987085;28;20202;-61
2022/07/02 05:55:18;;;;;;;2.10;2.00;;;;;;;;;;4986563;28;20279;-61
2022/07/02 05:57:46;;;;;;;2.65;2.22;;;;;;;;;;4987307;28;20217;-61
2022/07/02 06:00:14;;;;;;;2.17;2.08;;;;;;;;;;4984605;28;20217;-61
2022/07/02 06:02:41;;;;;;;2.85;2.28;;;;;;;;;;4986225;28;20233;-61
2022/07/02 06:07:49;;;;;;;2.15;2.03;;;;;;;;;;4987871;28;20209;-62
2022/07/02 06:10:18;;;;;;;1.92;1.88;;;;;;;;;;4985701;28;20205;-62
2022/07/02 06:12:48;;;;;;;2.30;2.20;;;;;;;;;;4986390;28;20296;-62
2022/07/02 06:15:15;;;;;;;2.95;2.33;;;;;;;;;;4987064;28;20237;-62
2022/07/02 06:17:42;;;;;;;6.28;2.33;;;;;;;;;;4986585;28;20206;-62
2022/07/02 06:20:10;;;;;;;2.00;2.00;;;;;;;;;;4986678;28;20210;-62
2022/07/02 06:22:37;;;;;;;2.25;2.15;;;;;;;;;;4986525;28;20225;-62
2022/07/02 06:25:04;;;;;;;2.60;2.10;;;;;;;;;;4987623;28;20213;-62
2022/07/02 06:27:33;;;;;;;2.70;2.50;;;;;;;;;;4986730;28;20563;-62
2022/07/02 06:30:01;;;;;;;2.80;2.60;;;;;;;;;;4987470;28;20553;-62
2022/07/02 06:32:28;;;;;;;2.10;2.00;;;;;;;;;;4986757;28;20193;-62
2022/07/02 06:34:55;;;;;;;2.55;2.45;;;;;;;;;;4986971;28;20208;-62
2022/07/02 06:37:22;;;;;;;3.40;2.50;;;;;;;;;;4987006;28;20214;-62
2022/07/02 06:39:50;;;;;;;2.47;2.38;;;;;;;;;;4986988;28;20206;-62
2022/07/02 06:42:22;;;;;;;2.50;2.40;;;;;;;;;;4985280;28;20229;-62
2022/07/02 06:44:50;;;;;;;3.17;2.67;;;;;;;;;;4986723;28;20209;-62
2022/07/02 06:47:19;;;;;;;2.70;2.60;;;;;;;;;;4982619;28;20218;-61
2022/07/02 06:49:46;;;;;;;3.00;2.80;;;;;;;;;;4986811;28;20210;-61
2022/07/02 06:52:13;;;;;;;2.67;2.58;;;;;;;;;;4986580;28;20209;-62
2022/07/02 06:54:41;;;;;;;2.10;2.10;;;;;;;;;;4986797;28;20774;-62
2022/07/02 06:57:08;;;;;;;6.20;2.80;;;;;;;;;;4982684;28;20237;-62
2022/07/02 06:59:35;;;;;;;2.58;2.38;;;;;;;;;;4987679;28;20264;-62
2022/07/02 07:02:02;;;;;;;2.60;2.50;;;;;;;;;;4986346;28;20238;-62
2022/07/02 07:04:31;;;;;;;2.60;2.50;;;;;;;;;;4985420;28;20630;-62
2022/07/02 07:07:00;;;;;;;2.25;2.25;;;;;;;;;;4988069;28;20206;-61
2022/07/02 07:09:28;;;;;;;2.20;2.10;;;;;;;;;;4986994;28;20208;-62
2022/07/02 07:11:55;;;;;;;2.03;1.92;;;;;;;;;;4987535;28;20848;-62
2022/07/02 07:14:23;;;;;;;1.70;1.65;;;;;;;;;;4989127;28;20264;-61
2022/07/02 07:16:50;;;;;;;1.95;1.85;;;;;;;;;;4989485;28;20218;-61
2022/07/02 07:19:17;;;;;;;1.83;1.83;;;;;;;;;;4991212;28;20207;-61
2022/07/02 07:21:45;;;;;;;2.00;1.88;;;;;;;;;;4990416;28;20201;-62
2022/07/02 07:24:12;;;;;;;1.38;1.38;;;;;;;;;;4991010;28;20272;-62
2022/07/02 07:26:39;;;;;;;4.18;1.70;;;;;;;;;;4989893;28;20240;-61
2022/07/02 07:29:06;;;;;;;1.35;1.35;;;;;;;;;;4988563;28;20213;-61
2022/07/02 07:31:34;;;;;;;1.80;1.20;;;;;;;;;;4991227;28;20220;-62
2022/07/02 07:34:01;;;;;;;1.38;1.38;;;;;;;;;;4990885;28;20206;-62
2022/07/02 07:36:28;;;;;;;1.15;1.15;;;;;;;;;;4990979;28;20209;-61
2022/07/02 07:38:57;;;;;;;1.20;1.20;;;;;;;;;;4991061;28;20584;-62
2022/07/02 07:41:24;;;;;;;3.50;1.10;;;;;;;;;;4990685;28;20210;-61
2022/07/02 07:43:52;;;;;;;1.08;1.08;;;;;;;;;;4984117;28;20712;-61
2022/07/02 07:46:19;;;;;;;1.33;1.30;;;;;;;;;;4990634;28;20304;-63
2022/07/02 07:48:46;;;;;;;1.48;1.05;;;;;;;;;;4985688;28;20220;-62
2022/07/02 07:51:13;;;;;;;2.08;1.27;;;;;;;;;;4988462;28;20206;-60
2022/07/02 07:53:40;;;;;;;1.17;1.17;;;;;;;;;;4989239;28;20576;-60
2022/07/02 07:56:09;;;;;;;1.95;1.08;;;;;;;;;;4988679;28;20237;-60
2022/07/02 07:58:36;;;;;;;1.48;0.80;;;;;;;;;;4988669;28;20753;-61
2022/07/02 08:01:03;;;;;;;0.90;0.90;;;;;;;;;;4989025;28;20214;-61
2022/07/02 08:03:30;;;;;;;0.95;0.90;;;;;;;;;;4987301;28;20241;-62
2022/07/02 08:05:58;;;;;;;0.80;0.80;;;;;;;;;;4990181;28;20668;-66
2022/07/02 08:08:25;;;;;;;0.90;0.90;;;;;;;;;;4989556;28;20212;-61
2022/07/02 08:10:52;;;;;;;1.00;1.00;;;;;;;;;;4990622;28;20647;-62
2022/07/02 08:13:21;;;;;;;1.17;0.77;;;;;;;;;;4990067;28;20213;-63
2022/07/02 08:15:48;;;;;;;0.82;0.82;;;;;;;;;;4989873;28;20291;-61
2022/07/02 08:18:16;;;;;;;0.80;0.80;;;;;;;;;;4989435;28;20698;-61
2022/07/02 08:20:43;;;;;;;3.20;0.88;;;;;;;;;;4990110;28;20202;-61
2022/07/02 08:23:10;;;;;;;2.78;0.75;;;;;;;;;;4989448;28;20712;-64
2022/07/02 08:25:37;;;;;;;0.82;0.82;;;;;;;;;;4988589;28;20212;-61
2022/07/02 08:28:04;;;;;;;2.80;0.65;;;;;;;;;;4989906;28;20209;-61
2022/07/02 08:30:33;;;;;;;0.90;0.90;;;;;;;;;;4990108;28;20233;-64
2022/07/02 08:33:00;;;;;;;0.90;0.90;;;;;;;;;;4985624;28;20205;-61
2022/07/02 08:35:27;;;;;;;1.42;0.90;;;;;;;;;;4989015;28;20201;-61
2022/07/02 08:37:54;;;;;;;0.70;0.63;;;;;;;;;;4989771;28;20198;-61
2022/07/02 08:40:23;;;;;;;0.70;0.70;;;;;;;;;;4989383;28;20634;-66
2022/07/02 08:42:51;;;;;;;0.60;0.60;;;;;;;;;;4989792;28;20221;-62
2022/07/02 08:45:18;;;;;;;0.85;0.85;;;;;;;;;;4989262;28;20210;-61
2022/07/02 08:47:47;;;;;;;0.75;0.75;;;;;;;;;;4986859;28;20260;-62
2022/07/02 08:50:15;;;;;;;0.80;0.60;;;;;;;;;;4988843;28;20205;-61
2022/07/02 08:52:42;;;;;;;0.70;0.70;;;;;;;;;;4988912;28;20201;-61
2022/07/02 08:55:10;;;;;;;0.75;0.75;;;;;;;;;;4989537;28;20708;-62
2022/07/02 08:57:39;;;;;;;2.15;0.90;;;;;;;;;;4950091;28;20222;-61
2022/07/02 09:00:07;;;;;;;0.85;0.70;;;;;;;;;;4948209;29;20218;-61
2022/07/02 09:02:34;;;;;;;0.55;0.55;;;;;;;;;;4950016;28;20231;-61
2022/07/02 09:05:04;;;;;;;0.55;0.55;;;;;;;;;;4947885;28;20210;-63
2022/07/02 09:07:31;;;;;;;0.63;0.60;;;;;;;;;;4949165;28;20210;-61
2022/07/02 09:09:59;;;;;;;0.52;0.40;;;;;;;;;;4950083;29;20211;-62
2022/07/02 09:12:27;;;;;;;0.47;0.47;;;;;;;;;;4948385;28;20639;-61
2022/07/02 09:14:54;;;;;;;1.80;0.40;;;;;;;;;;4948171;28;20206;-61
2022/07/02 09:17:21;;;;;;;1.25;0.40;;;;;;;;;;4950631;28;20254;-61
2022/07/02 09:19:48;;;;;;;0.88;0.32;;;;;;;;;;4950091;28;20894;-63
2022/07/02 09:22:16;;;;;;;0.50;0.50;;;;;;;;;;4949917;28;20211;-62
2022/07/02 09:24:44;;;;;;;0.30;0.30;;;;;;;;;;4949637;28;20226;-62
2022/07/02 09:27:12;;;;;;;0.40;0.40;;;;;;;;;;4949688;28;20200;-60
2022/07/02 09:29:43;;;;;;;0.63;0.47;;;;;;;;;;4945163;28;20255;-59
2022/07/02 09:32:10;;;;;;;0.55;0.55;;;;;;;;;;4950728;29;20211;-60
2022/07/02 09:34:42;;;;;;;0.43;0.40;;;;;;;;;;4955165;28;20211;-59
2022/07/02 09:37:17;;;;;;;0.50;0.50;;;;;;;;;;4952272;28;20765;-59
2022/07/02 09:39:44;;;;;;;0.40;0.40;;;;;;;;;;4950401;28;20962;-59
2022/07/02 09:42:11;;;;;;;0.40;0.40;;;;;;;;;;4951150;28;20211;-59
2022/07/02 09:44:46;;;;;;;0.30;0.30;;;;;;;;;;4950356;28;20308;-59
2022/07/02 09:47:13;;;;;;;0.40;0.40;;;;;;;;;;4950403;28;20316;-59
2022/07/02 09:49:46;;;;;;;0.32;0.32;;;;;;;;;;4948078;28;20594;-59
2022/07/02 09:52:16;;;;;;;1.25;0.40;;;;;;;;;;4948790;28;20311;-59
2022/07/02 09:54:44;;;;;;;0.40;0.40;;;;;;;;;;4941343;29;20276;-59
2022/07/02 09:57:11;;;;;;;0.50;0.50;;;;;;;;;;4981310;28;20272;-60
2022/07/02 09:59:39;;;;;;;1.95;0.40;;;;;;;;;;4985887;28;20210;-59
2022/07/02 10:02:07;;;;;;;0.50;0.47;;;;;;;;;;4988713;28;20209;-59
2022/07/02 10:04:35;;;;;;;0.30;0.30;;;;;;;;;;4988535;28;20233;-59
2022/07/02 10:07:02;;;;;;;0.90;0.50;;;;;;;;;;4986540;28;20205;-59
2022/07/02 10:09:42;;;;;;;0.40;0.40;;;;;;;;;;4988886;28;20631;-59
2022/07/02 10:12:09;;;;;;;0.40;0.40;;;;;;;;;;4985873;28;20201;-60
2022/07/02 10:14:38;;;;;;;0.40;0.40;;;;;;;;;;4985168;28;20869;-60
2022/07/02 10:17:09;;;;;;;2.05;0.38;;;;;;;;;;4983787;28;20271;-62
2022/07/02 10:19:37;;;;;;;0.50;0.50;;;;;;;;;;4984033;28;20209;-61
2022/07/02 10:22:04;;;;;;;0.55;0.55;;;;;;;;;;4988126;28;20212;-61
2022/07/02 10:24:32;;;;;;;1.00;0.70;;;;;;;;;;4988073;28;20592;-61
2022/07/02 10:27:01;;;;;;;1.20;0.60;;;;;;;;;;4987854;28;20213;-61
2022/07/02 10:29:28;;;;;;;1.30;0.95;;;;;;;;;;4986741;28;20205;-61
2022/07/02 10:32:01;;;;;;;0.70;0.70;;;;;;;;;;4989607;28;20217;-60
2022/07/02 10:34:37;;;;;;;0.63;0.63;;;;;;;;;;4989492;28;20206;-61
2022/07/02 10:37:05;;;;;;;0.52;0.52;;;;;;;;;;4991449;28;20217;-61
2022/07/02 10:39:39;;;;;;;0.85;0.60;;;;;;;;;;4989573;28;20213;-60
2022/07/02 10:42:07;;;;;;;0.60;0.60;;;;;;;;;;4989353;28;20332;-60
2022/07/02 10:44:38;;;;;;;0.68;0.68;;;;;;;;;;4988415;28;20703;-61
2022/07/02 10:47:05;;;;;;;0.77;0.60;;;;;;;;;;4989079;28;20301;-61
2022/07/02 10:49:33;;;;;;;0.50;0.50;;;;;;;;;;4982923;28;20304;-61
2022/07/02 10:52:00;;;;;;;1.83;0.50;;;;;;;;;;4993860;28;20220;-61
2022/07/02 10:54:33;;;;;;;0.60;0.60;;;;;;;;;;4993396;28;20233;-61
2022/07/02 10:57:01;;;;;;;1.33;0.65;;;;;;;;;;4992608;28;20237;-61
2022/07/02 10:59:35;;;;;;;0.40;0.40;;;;;;;;;;4992762;28;20252;-61
2022/07/02 11:02:03;;;;;;;0.60;0.60;;;;;;;;;;4993036;28;20217;-61
2022/07/02 11:04:30;;;;;;;0.50;0.50;;;;;;;;;;4992886;28;20225;-60
2022/07/02 11:07:07;;;;;;;0.40;0.40;;;;;;;;;;4992214;28;20671;-61
2022/07/02 11:09:45;;;;;;;1.17;0.60;;;;;;;;;;4990868;28;20267;-61
2022/07/02 11:12:14;;;;;;;2.05;0.60;;;;;;;;;;4991996;28;20264;-61
2022/07/02 11:14:53;;;;;;;0.30;0.30;;;;;;;;;;4990859;28;20215;-61
2022/07/02 11:17:22;;;;;;;0.40;0.40;;;;;;;;;;4992052;28;20209;-61
2022/07/02 11:19:52;;;;;;;2.08;1.05;;;;;;;;;;4991558;28;20591;-60
2022/07/02 11:22:19;;;;;;;0.50;0.50;;;;;;;;;;4991743;28;20240;-61
2022/07/02 11:24:46;;;;;;;0.60;0.60;;;;;;;;;;4992275;28;20759;-61
2022/07/02 11:27:21;;;;;;;0.52;0.52;;;;;;;;;;4988698;28;20312;-62
2022/07/02 11:29:56;;;;;;;0.55;0.55;;;;;;;;;;4982248;28;20205;-61
2022/07/02 11:32:23;;;;;;;0.55;0.55;;;;;;;;;;4991738;28;20612;-61
2022/07/02 11:34:58;;;;;;;0.40;0.40;;;;;;;;;;4991976;28;20661;-60
2022/07/02 11:37:26;;;;;;;0.50;0.50;;;;;;;;;;4991742;28;20296;-61
2022/07/02 11:39:53;;;;;;;0.40;0.40;;;;;;;;;;4991833;28;20292;-60
2022/07/02 11:42:20;;;;;;;0.60;0.60;;;;;;;;;;4991653;28;20218;-61
2022/07/02 11:44:47;;;;;;;0.43;0.43;;;;;;;;;;4990896;28;20234;-61
2022/07/02 11:47:15;;;;;;;0.47;0.47;;;;;;;;;;4991425;28;20213;-61
2022/07/02 11:49:42;;;;;;;1.42;0.50;;;;;;;;;;4991544;28;20643;-60
2022/07/02 11:52:09;;;;;;;0.60;0.60;;;;;;;;;;4991686;28;20206;-60
2022/07/02 11:54:41;;;;;;;3.13;0.60;;;;;;;;;;4991234;28;20222;-60
2022/07/02 11:57:08;;;;;;;0.60;0.60;;;;;;;;;;4990959;28;20221;-61
2022/07/02 11:59:35;;;;;;;1.65;0.70;;;;;;;;;;4990610;28;20221;-61
2022/07/02 12:02:02;;;;;;;0.40;0.40;;;;;;;;;;4991517;28;20217;-61
2022/07/02 12:04:31;;;;;;;0.40;0.40;;;;;;;;;;4991155;28;20229;-61
2022/07/02 12:06:58;;;;;;;0.40;0.40;;;;;;;;;;4991243;28;20611;-64
2022/07/02 12:09:26;;;;;;;0.40;0.40;;;;;;;;;;4990878;28;20956;-60
2022/07/02 12:11:56;;;;;;;0.50;0.50;;;;;;;;;;4988993;28;20206;-61
2022/07/02 12:14:25;;;;;;;0.95;0.60;;;;;;;;;;4990433;28;20704;-61
2022/07/02 12:16:52;;;;;;;0.47;0.47;;;;;;;;;;4990886;28;20202;-61
2022/07/02 12:19:22;;;;;;;0.50;0.50;;;;;;;;;;4991549;28;20296;-61
2022/07/02 12:21:51;;;;;;;0.93;0.60;;;;;;;;;;4991767;28;20276;-61
2022/07/02 12:24:22;;;;;;;0.50;0.47;;;;;;;;;;4991303;28;20230;-61
2022/07/02 12:26:50;;;;;;;0.40;0.40;;;;;;;;;;4991689;28;20225;-61
2022/07/02 12:32:05;;;;;;;0.47;0.47;;;;;;;;;;4991831;28;20208;-62
2022/07/02 12:34:37;;;;;;;0.50;0.50;;;;;;;;;;4991538;28;20573;-62
2022/07/02 12:37:06;;;;;;;0.55;0.55;;;;;;;;;;4987004;28;20214;-62
2022/07/02 12:39:40;;;;;;;0.40;0.40;;;;;;;;;;4990501;28;20216;-62
2022/07/02 12:42:15;;;;;;;0.65;0.52;;;;;;;;;;4990119;28;20256;-62
2022/07/02 12:44:51;;;;;;;0.50;0.50;;;;;;;;;;4989734;28;20240;-62
2022/07/02 12:47:23;;;;;;;0.47;0.47;;;;;;;;;;4990813;28;20554;-62
2022/07/02 12:49:53;;;;;;;0.68;0.60;;;;;;;;;;4990326;28;20297;-62
2022/07/02 12:52:22;;;;;;;0.60;0.60;;;;;;;;;;4990856;28;20308;-62
2022/07/02 12:54:49;;;;;;;1.30;0.60;;;;;;;;;;4990014;28;20244;-63
2022/07/02 12:57:17;;;;;;;0.40;0.40;;;;;;;;;;4983056;28;20786;-62
2022/07/02 12:59:44;;;;;;;0.80;0.40;;;;;;;;;;4989854;28;20209;-63
2022/07/02 13:02:15;;;;;;;0.40;0.40;;;;;;;;;;4990143;28;20215;-62
2022/07/02 13:04:43;;;;;;;1.65;0.30;;;;;;;;;;4989369;28;20226;-63
2022/07/02 13:07:10;;;;;;;0.47;0.47;;;;;;;;;;4990046;28;20202;-63
2022/07/02 13:09:39;;;;;;;0.30;0.30;;;;;;;;;;4989573;28;20229;-62
2022/07/02 13:12:06;;;;;;;0.68;0.43;;;;;;;;;;4988711;28;20206;-61
2022/07/02 13:14:33;;;;;;;0.32;0.32;;;;;;;;;;4989979;28;20280;-62
2022/07/02 13:17:00;;;;;;;0.35;0.35;;;;;;;;;;4989301;28;20212;-64
2022/07/02 13:19:27;;;;;;;0.30;0.30;;;;;;;;;;4989738;28;20205;-61
2022/07/02 13:21:54;;;;;;;0.40;0.40;;;;;;;;;;4990186;28;20206;-62
2022/07/02 13:24:21;;;;;;;0.52;0.40;;;;;;;;;;4989824;28;20233;-61
2022/07/02 13:26:50;;;;;;;0.60;0.60;;;;;;;;;;4990229;28;20214;-62
2022/07/02 13:29:17;;;;;;;0.55;0.40;;;;;;;;;;4990649;28;20276;-61
2022/07/02 13:31:44;;;;;;;0.40;0.40;;;;;;;;;;4989738;28;20214;-61
2022/07/02 13:34:11;;;;;;;0.40;0.40;;;;;;;;;;4984564;28;20233;-61
2022/07/02 13:36:38;;;;;;;0.95;0.40;;;;;;;;;;4986207;28;20216;-61
2022/07/02 13:39:05;;;;;;;0.40;0.40;;;;;;;;;;4987626;28;20218;-62
2022/07/02 13:41:32;;;;;;;0.32;0.32;;;;;;;;;;4988102;28;20206;-62
2022/07/02 13:44:00;;;;;;;0.40;0.40;;;;;;;;;;4978922;28;20280;-62
2022/07/02 13:46:27;;;;;;;0.60;0.60;;;;;;;;;;4987462;28;20205;-62
2022/07/02 13:48:54;;;;;;;0.50;0.50;;;;;;;;;;4987695;28;20209;-62
2022/07/02 13:51:21;;;;;;;0.70;0.30;;;;;;;;;;4987711;28;20217;-62
2022/07/02 13:53:48;;;;;;;0.30;0.30;;;;;;;;;;4986862;28;20296;-62
2022/07/02 13:56:15;;;;;;;0.30;0.30;;;;;;;;;;4986304;28;20237;-62
2022/07/02 13:58:42;;;;;;;0.40;0.40;;;;;;;;;;4987511;28;20221;-62
2022/07/02 14:01:11;;;;;;;3.50;0.38;;;;;;;;;;4987186;28;20683;-62
2022/07/02 14:03:38;;;;;;;0.40;0.40;;;;;;;;;;4986800;28;20507;-62
2022/07/02 14:06:05;;;;;;;0.40;0.40;;;;;;;;;;4986539;28;20229;-62
2022/07/02 14:08:32;;;;;;;0.43;0.43;;;;;;;;;;4987004;28;20661;-62
2022/07/02 14:10:59;;;;;;;0.40;0.40;;;;;;;;;;4986962;28;20236;-62
2022/07/02 14:13:26;;;;;;;0.40;0.40;;;;;;;;;;4987226;28;20212;-62
2022/07/02 14:15:53;;;;;;;0.43;0.43;;;;;;;;;;4986674;28;20214;-62
2022/07/02 14:18:22;;;;;;;0.40;0.40;;;;;;;;;;4987264;28;20213;-62
2022/07/02 14:20:49;;;;;;;0.40;0.40;;;;;;;;;;4986714;28;20213;-63
2022/07/02 14:23:16;;;;;;;1.00;1.00;;;;;;;;;;4979181;28;20205;-63
2022/07/02 14:25:43;;;;;;;0.28;0.28;;;;;;;;;;4987781;28;20221;-62
2022/07/02 14:28:10;;;;;;;0.40;0.40;;;;;;;;;;4981813;28;20206;-63
2022/07/02 14:30:37;;;;;;;1.20;0.80;;;;;;;;;;4987346;28;20210;-62
2022/07/02 14:33:04;;;;;;;0.43;0.43;;;;;;;;;;4987328;28;20213;-62
2022/07/02 14:35:32;;;;;;;0.50;0.50;;;;;;;;;;4996876;28;20210;-62
2022/07/02 14:37:59;;;;;;;0.40;0.40;;;;;;;;;;4987508;28;20240;-63
2022/07/02 14:40:27;;;;;;;0.95;0.45;;;;;;;;;;4985108;28;20276;-63
2022/07/02 14:42:54;;;;;;;0.40;0.40;;;;;;;;;;4986504;28;20456;-63
2022/07/02 14:45:21;;;;;;;0.43;0.43;;;;;;;;;;4985815;28;20762;-63
2022/07/02 14:47:48;;;;;;;0.40;0.40;;;;;;;;;;4986776;28;20220;-64
2022/07/02 14:50:15;;;;;;;0.40;0.40;;;;;;;;;;4987133;28;20201;-62
2022/07/02 14:52:44;;;;;;;0.40;0.40;;;;;;;;;;4986778;28;20209;-62
2022/07/02 14:55:11;;;;;;;0.40;0.40;;;;;;;;;;4984093;28;20280;-62